createdAt,value
2023-03-07T00:02:51.295Z,3.10
2023-03-07T00:07:43.533Z,3.20
2023-03-07T00:12:35.579Z,3.30
2023-03-07T00:17:27.497Z,3.30
2023-03-07T00:22:19.547Z,3.30
2023-03-07T00:27:11.530Z,3.40
2023-03-07T00:32:03.814Z,3.40
2023-03-07T00:36:55.844Z,3.60
2023-03-07T00:41:47.923Z,3.60
2023-03-07T00:46:39.893Z,3.60
2023-03-07T00:51:32.108Z,3.60
2023-03-07T00:56:26.148Z,3.60
2023-03-07T01:01:23.892Z,3.50
2023-03-07T01:06:18.786Z,3.40
2023-03-07T01:11:12.214Z,3.40
2023-03-07T01:16:34.717Z,3.40
2023-03-07T01:21:38.620Z,3.40
2023-03-07T01:26:32.726Z,3.40
2023-03-07T01:31:26.047Z,3.40
2023-03-07T01:36:25.467Z,3.50
2023-03-07T01:41:18.258Z,3.50
2023-03-07T01:46:30.249Z,3.50
2023-03-07T01:51:23.686Z,3.60
2023-03-07T01:56:19.019Z,3.50
2023-03-07T02:01:14.072Z,3.40
2023-03-07T02:12:51.318Z,2.90
2023-03-07T02:17:45.494Z,2.70
2023-03-07T02:22:37.798Z,2.60
2023-03-07T02:27:33.677Z,2.50
2023-03-07T02:32:26.624Z,2.50
2023-03-07T02:37:18.640Z,2.60
2023-03-07T02:42:23.672Z,2.70
2023-03-07T02:47:21.298Z,3.00
2023-03-07T02:52:13.606Z,3.10
2023-03-07T02:57:07.620Z,3.20
2023-03-07T03:02:01.782Z,3.30
2023-03-07T03:06:54.223Z,3.40
2023-03-07T03:11:46.497Z,3.40
2023-03-07T03:16:40.313Z,3.30
2023-03-07T03:21:33.849Z,3.30
2023-03-07T03:26:26.286Z,3.30
2023-03-07T03:31:18.725Z,3.30
2023-03-07T03:36:16.222Z,3.40
2023-03-07T03:41:18.017Z,3.40
2023-03-07T03:46:12.229Z,3.40
2023-03-07T03:51:14.572Z,3.40
2023-03-07T03:56:19.564Z,3.40
2023-03-07T04:01:13.058Z,3.30
2023-03-07T04:06:14.025Z,3.40
2023-03-07T04:11:06.649Z,3.50
2023-03-07T04:15:59.000Z,3.30
2023-03-07T04:20:52.378Z,3.30
2023-03-07T04:25:55.669Z,3.20
2023-03-07T04:30:49.957Z,3.10
2023-03-07T04:35:43.532Z,3.00
2023-03-07T04:40:37.709Z,3.10
2023-03-07T04:45:39.350Z,3.10
2023-03-07T04:50:32.623Z,3.20
2023-03-07T04:55:26.471Z,3.20
2023-03-07T05:00:22.361Z,3.10
2023-03-07T05:05:15.496Z,3.10
2023-03-07T05:10:09.089Z,3.20
2023-03-07T05:15:03.175Z,3.30
2023-03-07T05:19:55.331Z,3.30
2023-03-07T05:24:47.911Z,3.40
2023-03-07T05:29:40.287Z,3.50
2023-03-07T05:34:32.423Z,3.60
2023-03-07T05:39:25.313Z,3.60
2023-03-07T05:44:17.545Z,3.70
2023-03-07T05:49:09.632Z,3.70
2023-03-07T05:54:01.691Z,3.70
2023-03-07T05:58:55.101Z,3.70
2023-03-07T06:03:48.455Z,3.80
2023-03-07T06:08:40.707Z,3.80
2023-03-07T06:13:33.530Z,4.00
2023-03-07T06:18:26.375Z,4.20
2023-03-07T06:23:18.404Z,4.30
2023-03-07T06:28:10.840Z,4.40
2023-03-07T06:33:03.084Z,4.50
2023-03-07T06:37:55.386Z,4.60
2023-03-07T06:42:48.219Z,4.60
2023-03-07T06:47:41.430Z,4.70
2023-03-07T06:52:35.260Z,4.70
2023-03-07T06:57:27.689Z,4.80
2023-03-07T07:02:20.055Z,4.80
2023-03-07T07:07:12.443Z,4.80
2023-03-07T07:12:06.033Z,4.90
2023-03-07T07:17:00.251Z,5.10
2023-03-07T07:21:54.117Z,5.00
2023-03-07T07:26:46.948Z,5.20
2023-03-07T07:31:39.194Z,5.30
2023-03-07T07:36:32.233Z,5.40
2023-03-07T07:41:24.547Z,5.60
2023-03-07T07:46:19.615Z,5.60
2023-03-07T07:51:12.541Z,5.70
2023-03-07T07:56:05.036Z,5.70
2023-03-07T08:00:58.158Z,5.80
2023-03-07T08:05:51.140Z,6.00
2023-03-07T08:10:44.522Z,6.20
2023-03-07T08:15:37.089Z,6.30
2023-03-07T08:20:29.147Z,6.30
2023-03-07T08:25:23.869Z,6.50
2023-03-07T08:30:16.364Z,6.70
2023-03-07T08:35:09.337Z,6.80
2023-03-07T08:40:01.402Z,7.00
2023-03-07T08:44:53.478Z,7.10
2023-03-07T08:49:45.553Z,7.30
2023-03-07T08:54:37.622Z,7.30
2023-03-07T08:59:29.578Z,7.10
2023-03-07T09:04:23.161Z,7.00
2023-03-07T09:09:16.590Z,6.90
2023-03-07T09:14:09.967Z,7.00
2023-03-07T09:19:02.394Z,6.90
2023-03-07T09:23:54.553Z,6.90
2023-03-07T09:28:46.637Z,6.90
2023-03-07T09:33:40.033Z,6.90
2023-03-07T09:38:32.236Z,6.90
2023-03-07T09:43:33.796Z,7.00
2023-03-07T09:49:06.751Z,7.10
2023-03-07T09:54:09.429Z,7.20
2023-03-07T09:59:33.511Z,7.10
2023-03-07T10:04:34.191Z,7.10
2023-03-07T10:09:26.794Z,7.30
2023-03-07T10:15:05.461Z,7.50
2023-03-07T10:20:22.396Z,7.50
2023-03-07T10:25:33.552Z,7.60
2023-03-07T10:30:26.006Z,7.70
2023-03-07T10:35:21.826Z,7.90
2023-03-07T10:40:22.545Z,7.80
2023-03-07T10:45:15.955Z,7.90
2023-03-07T10:50:19.778Z,8.00
2023-03-07T10:55:38.897Z,7.90
2023-03-07T11:00:31.096Z,8.00
2023-03-07T11:05:31.692Z,8.10
2023-03-07T11:10:35.173Z,8.20
2023-03-07T11:15:27.648Z,8.40
2023-03-07T11:20:30.209Z,9.50
2023-03-07T11:25:26.507Z,9.90
2023-03-07T11:30:25.201Z,9.90
2023-03-07T11:35:45.586Z,10.40
2023-03-07T11:40:51.413Z,10.70
2023-03-07T11:45:58.603Z,10.20
2023-03-07T11:51:00.923Z,9.70
2023-03-07T11:56:17.867Z,9.30
2023-03-07T12:01:46.410Z,9.00
2023-03-07T12:06:49.852Z,9.00
2023-03-07T12:11:55.785Z,9.20
2023-03-07T12:17:02.682Z,9.30
2023-03-07T12:22:22.939Z,9.20
2023-03-07T12:27:27.277Z,9.30
2023-03-07T12:32:27.564Z,9.60
2023-03-07T12:37:27.525Z,9.60
2023-03-07T12:42:28.357Z,9.60
2023-03-07T12:47:51.630Z,9.70
2023-03-07T12:52:58.285Z,9.70
2023-03-07T12:58:13.593Z,10.10
2023-03-07T13:03:06.860Z,10.60
2023-03-07T13:07:59.649Z,10.90
2023-03-07T13:12:52.858Z,11.40
2023-03-07T13:17:44.967Z,11.30
2023-03-07T13:22:36.965Z,11.00
2023-03-07T13:27:46.900Z,10.60
2023-03-07T13:32:51.290Z,10.40
2023-03-07T13:38:04.520Z,10.60
2023-03-07T13:42:57.233Z,10.80
2023-03-07T13:47:49.328Z,11.20
2023-03-07T13:52:44.343Z,11.00
2023-03-07T13:57:40.019Z,11.00
2023-03-07T14:02:35.044Z,10.50
2023-03-07T14:07:39.986Z,10.50
2023-03-07T14:13:09.762Z,10.20
2023-03-07T14:18:14.038Z,10.20
2023-03-07T14:23:18.473Z,10.20
2023-03-07T14:28:29.511Z,10.00
2023-03-07T14:33:21.569Z,10.00
2023-03-07T14:38:25.250Z,9.90
2023-03-07T14:43:56.130Z,9.80
2023-03-07T14:49:24.641Z,9.60
2023-03-07T14:54:21.342Z,9.50
2023-03-07T14:59:27.637Z,9.50
2023-03-07T15:04:23.735Z,9.50
2023-03-07T15:09:16.672Z,9.60
2023-03-07T15:14:20.068Z,9.60
2023-03-07T15:19:30.246Z,9.40
2023-03-07T15:24:46.353Z,9.30
2023-03-07T15:29:47.398Z,9.20
2023-03-07T15:34:40.345Z,9.10
2023-03-07T15:39:34.722Z,9.10
2023-03-07T15:44:26.886Z,9.00
2023-03-07T15:49:23.025Z,8.90
2023-03-07T15:54:40.558Z,8.90
2023-03-07T15:59:37.050Z,8.80
2023-03-07T16:04:35.221Z,8.70
2023-03-07T16:09:27.632Z,8.60
2023-03-07T16:14:37.942Z,8.40
2023-03-07T16:19:30.466Z,8.40
2023-03-07T16:24:22.949Z,8.30
2023-03-07T16:29:17.586Z,8.30
2023-03-07T16:34:15.555Z,8.20
2023-03-07T16:39:07.572Z,8.20
2023-03-07T16:43:59.804Z,8.20
2023-03-07T16:48:51.808Z,8.10
2023-03-07T16:53:47.774Z,8.10
2023-03-07T16:58:41.327Z,8.00
2023-03-07T17:03:34.496Z,7.70
2023-03-07T17:08:26.477Z,7.10
2023-03-07T17:13:18.960Z,6.60
2023-03-07T17:18:11.836Z,6.20
2023-03-07T17:23:04.033Z,6.00
2023-03-07T17:28:20.159Z,5.80
2023-03-07T17:33:12.465Z,5.50
2023-03-07T17:38:04.487Z,5.30
2023-03-07T17:42:57.789Z,5.40
2023-03-07T17:47:54.078Z,5.40
2023-03-07T17:52:46.324Z,5.40
2023-03-07T17:57:38.488Z,5.40
2023-03-07T18:02:30.575Z,5.20
2023-03-07T18:07:23.296Z,5.00
2023-03-07T18:12:16.662Z,5.00
2023-03-07T18:17:08.873Z,4.90
2023-03-07T18:22:01.082Z,4.90
2023-03-07T18:26:54.501Z,4.80
2023-03-07T18:31:47.129Z,4.70
2023-03-07T18:36:40.632Z,4.80
2023-03-07T18:41:32.819Z,4.90
2023-03-07T18:46:30.075Z,4.90
2023-03-07T18:51:25.269Z,4.90
2023-03-07T18:56:17.783Z,5.00
2023-03-07T19:01:18.364Z,4.90
2023-03-07T19:06:11.220Z,4.90
2023-03-07T19:11:04.840Z,4.80
2023-03-07T19:16:15.042Z,4.70
2023-03-07T19:21:25.244Z,4.70
2023-03-07T19:26:18.805Z,4.60
2023-03-07T19:31:25.417Z,4.50
2023-03-07T19:36:27.348Z,4.60
2023-03-07T19:41:22.088Z,4.50
2023-03-07T19:46:15.984Z,4.50
2023-03-07T19:51:16.166Z,4.60
2023-03-07T19:56:28.467Z,4.50
2023-03-07T20:01:21.298Z,4.40
2023-03-07T20:06:21.295Z,4.30
2023-03-07T20:11:16.119Z,4.40
2023-03-07T20:16:10.475Z,4.30
2023-03-07T20:21:07.482Z,4.30
2023-03-07T20:26:11.040Z,4.30
2023-03-07T20:31:08.728Z,4.30
2023-03-07T20:36:08.885Z,4.30
2023-03-07T20:41:10.477Z,4.20
2023-03-07T20:46:08.222Z,4.20
2023-03-07T20:51:18.574Z,4.20
2023-03-07T20:56:10.557Z,4.20
2023-03-07T21:01:03.341Z,4.20
2023-03-07T21:06:00.237Z,4.20
2023-03-07T21:11:00.220Z,4.30
2023-03-07T21:15:56.910Z,4.20
2023-03-07T21:20:48.983Z,4.10
2023-03-07T21:25:41.040Z,4.10
2023-03-07T21:30:34.142Z,4.10
2023-03-07T21:35:26.141Z,4.10
2023-03-07T21:40:18.236Z,4.00
2023-03-07T21:45:10.901Z,4.00
2023-03-07T21:50:04.637Z,3.90
2023-03-07T21:54:56.696Z,3.90
2023-03-07T21:59:48.725Z,4.00
2023-03-07T22:04:40.864Z,3.90
2023-03-07T22:09:33.331Z,3.90
2023-03-07T22:14:25.333Z,3.90
2023-03-07T22:19:17.383Z,3.90
2023-03-07T22:24:11.229Z,3.90
2023-03-07T22:29:03.617Z,3.80
2023-03-07T22:33:55.692Z,3.70
2023-03-07T22:38:47.777Z,3.60
2023-03-07T22:43:40.356Z,3.60
2023-03-07T22:48:33.036Z,3.60
2023-03-07T22:53:27.990Z,3.60
2023-03-07T22:58:20.266Z,3.60
2023-03-07T23:03:12.730Z,3.70
2023-03-07T23:08:04.961Z,3.60
2023-03-07T23:12:57.325Z,3.50
2023-03-07T23:17:49.360Z,3.50
2023-03-07T23:22:42.905Z,3.50
2023-03-07T23:27:34.909Z,3.60
2023-03-07T23:32:26.991Z,3.60
2023-03-07T23:37:19.052Z,3.50
2023-03-07T23:42:12.691Z,3.50
2023-03-07T23:47:05.450Z,3.60
2023-03-07T23:51:57.700Z,3.60
2023-03-07T23:56:49.728Z,3.50
